createdAt,value
2018-03-16T00:02:00.016Z,92.30
2018-03-16T00:04:28.144Z,92.44
2018-03-16T00:06:56.275Z,92.51
2018-03-16T00:09:24.480Z,92.63
2018-03-16T00:11:52.611Z,92.45
2018-03-16T00:14:20.830Z,92.53
2018-03-16T00:16:50.104Z,92.53
2018-03-16T00:19:18.255Z,92.69
2018-03-16T00:21:46.418Z,92.71
2018-03-16T00:24:14.568Z,92.45
2018-03-16T00:26:43.364Z,92.54
2018-03-16T00:29:11.503Z,92.80
2018-03-16T00:31:39.722Z,92.89
2018-03-16T00:34:07.873Z,92.97
2018-03-16T00:36:36.092Z,92.87
2018-03-16T00:39:04.235Z,92.19
2018-03-16T00:41:32.355Z,92.32
2018-03-16T00:44:00.494Z,92.57
2018-03-16T00:46:28.659Z,92.35
2018-03-16T00:48:56.864Z,92.46
2018-03-16T00:51:25.014Z,92.45
2018-03-16T00:53:53.198Z,92.46
2018-03-16T00:56:21.351Z,92.27
2018-03-16T00:58:49.473Z,92.31
2018-03-16T01:01:17.709Z,92.45
2018-03-16T01:03:45.874Z,92.68
2018-03-16T01:06:14.003Z,92.92
2018-03-16T01:08:48.254Z,93.04
2018-03-16T01:11:16.391Z,93.23
2018-03-16T01:13:44.495Z,93.40
2018-03-16T01:16:12.684Z,93.63
2018-03-16T01:18:40.865Z,93.68
2018-03-16T01:21:09.075Z,93.79
2018-03-16T01:23:37.212Z,93.88
2018-03-16T01:26:05.804Z,93.99
2018-03-16T01:28:33.976Z,94.06
2018-03-16T01:31:02.203Z,94.17
2018-03-16T01:33:30.522Z,94.28
2018-03-16T01:35:58.679Z,94.34
2018-03-16T01:38:26.805Z,94.45
2018-03-16T01:40:54.952Z,94.53
2018-03-16T01:43:23.117Z,94.71
2018-03-16T01:45:51.276Z,94.80
2018-03-16T01:48:19.488Z,94.96
2018-03-16T01:50:48.526Z,95.09
2018-03-16T01:53:17.610Z,95.09
2018-03-16T01:55:45.791Z,95.10
2018-03-16T01:58:14.029Z,95.18
2018-03-16T02:00:42.185Z,95.25
2018-03-16T02:03:10.360Z,95.30
2018-03-16T02:05:38.540Z,95.38
2018-03-16T02:08:06.750Z,95.38
2018-03-16T02:10:34.899Z,95.36
2018-03-16T02:13:03.062Z,95.35
2018-03-16T02:15:31.284Z,95.44
2018-03-16T02:17:59.440Z,95.66
2018-03-16T02:20:27.599Z,95.76
2018-03-16T02:22:55.727Z,95.82
2018-03-16T02:25:23.855Z,95.91
2018-03-16T02:27:51.981Z,96.10
2018-03-16T02:30:20.149Z,96.23
2018-03-16T02:32:48.264Z,96.34
2018-03-16T02:35:16.433Z,96.43
2018-03-16T02:37:44.632Z,96.58
2018-03-16T02:40:12.780Z,96.58
2018-03-16T02:42:41.107Z,96.64
2018-03-16T02:45:10.214Z,96.77
2018-03-16T02:47:38.355Z,96.81
2018-03-16T02:50:06.478Z,96.84
2018-03-16T02:52:34.667Z,96.84
2018-03-16T02:55:02.848Z,96.86
2018-03-16T02:57:30.979Z,96.86
2018-03-16T02:59:59.128Z,96.97
2018-03-16T03:02:27.264Z,97.10
2018-03-16T03:04:55.391Z,97.29
2018-03-16T03:07:23.527Z,97.47
2018-03-16T03:09:51.654Z,97.60
2018-03-16T03:12:19.825Z,97.68
2018-03-16T03:14:47.953Z,97.84
2018-03-16T03:17:16.099Z,97.89
2018-03-16T03:19:45.631Z,98.02
2018-03-16T03:22:13.790Z,98.11
2018-03-16T03:24:41.914Z,98.08
2018-03-16T03:27:10.518Z,98.05
2018-03-16T03:29:38.653Z,98.10
2018-03-16T03:32:06.797Z,98.12
2018-03-16T03:34:34.939Z,98.16
2018-03-16T03:37:03.083Z,98.21
2018-03-16T03:39:31.249Z,98.25
2018-03-16T03:41:59.383Z,98.27
2018-03-16T03:44:27.530Z,98.29
2018-03-16T03:46:55.667Z,98.29
2018-03-16T03:49:23.786Z,98.29
2018-03-16T03:51:51.928Z,98.30
2018-03-16T03:54:20.062Z,98.30
2018-03-16T03:56:48.199Z,98.29
2018-03-16T03:59:16.346Z,98.26
2018-03-16T04:01:44.603Z,98.26
2018-03-16T04:04:12.746Z,98.25
2018-03-16T04:06:40.865Z,98.27
2018-03-16T04:09:09.244Z,98.29
2018-03-16T04:11:37.361Z,98.28
2018-03-16T04:14:05.514Z,98.30
2018-03-16T04:16:33.646Z,98.31
2018-03-16T04:19:01.786Z,98.33
2018-03-16T04:21:29.925Z,98.34
2018-03-16T04:23:58.047Z,98.35
2018-03-16T04:26:26.186Z,98.39
2018-03-16T04:28:54.341Z,98.49
2018-03-16T04:31:22.490Z,98.52
2018-03-16T04:33:50.623Z,98.55
2018-03-16T04:36:18.771Z,98.57
2018-03-16T04:38:47.378Z,98.59
2018-03-16T04:41:15.506Z,98.58
2018-03-16T04:43:43.636Z,98.60
2018-03-16T04:46:11.841Z,98.64
2018-03-16T04:48:39.980Z,98.67
2018-03-16T04:51:08.149Z,98.69
2018-03-16T04:53:36.294Z,98.71
2018-03-16T04:56:04.471Z,98.76
2018-03-16T04:58:32.611Z,98.83
2018-03-16T05:01:00.766Z,98.88
2018-03-16T05:03:28.902Z,98.92
2018-03-16T05:05:57.042Z,98.98
2018-03-16T05:08:25.201Z,99.01
2018-03-16T05:10:54.300Z,99.04
2018-03-16T05:13:22.443Z,99.08
2018-03-16T05:15:50.572Z,99.08
2018-03-16T05:18:18.710Z,99.08
2018-03-16T05:20:46.842Z,99.09
2018-03-16T05:23:14.976Z,99.11
2018-03-16T05:25:43.098Z,99.11
2018-03-16T05:28:11.260Z,99.12
2018-03-16T05:30:39.587Z,99.15
2018-03-16T05:33:07.724Z,99.18
2018-03-16T05:35:35.862Z,99.19
2018-03-16T05:38:04.005Z,99.19
2018-03-16T05:40:32.131Z,99.21
2018-03-16T05:43:00.275Z,99.20
2018-03-16T05:45:28.415Z,99.19
2018-03-16T05:47:56.549Z,99.22
2018-03-16T05:50:24.696Z,99.21
2018-03-16T05:52:52.820Z,99.19
2018-03-16T05:55:20.990Z,99.15
2018-03-16T05:57:49.124Z,99.14
2018-03-16T06:00:17.253Z,99.12
2018-03-16T06:02:45.427Z,99.14
2018-03-16T06:05:13.559Z,99.16
2018-03-16T06:07:41.744Z,99.16
2018-03-16T06:10:09.890Z,99.17
2018-03-16T06:12:38.024Z,99.15
2018-03-16T06:15:06.262Z,99.15
2018-03-16T06:17:34.392Z,99.15
2018-03-16T06:20:02.621Z,99.13
2018-03-16T06:22:31.466Z,99.13
2018-03-16T06:24:59.604Z,99.19
2018-03-16T06:27:27.749Z,99.21
2018-03-16T06:29:55.881Z,99.19
2018-03-16T06:32:24.075Z,99.16
2018-03-16T06:34:52.382Z,99.12
2018-03-16T06:37:21.041Z,99.11
2018-03-16T06:39:49.172Z,99.09
2018-03-16T06:42:17.308Z,99.07
2018-03-16T06:44:45.590Z,99.06
2018-03-16T06:47:13.584Z,99.04
2018-03-16T06:49:41.741Z,99.01
2018-03-16T06:52:09.901Z,99.00
2018-03-16T06:54:38.031Z,99.02
2018-03-16T06:57:06.179Z,99.05
2018-03-16T06:59:34.320Z,99.01
2018-03-16T07:02:02.457Z,99.00
2018-03-16T07:04:30.606Z,99.04
2018-03-16T07:06:58.744Z,99.08
2018-03-16T07:09:27.004Z,99.10
2018-03-16T07:11:55.144Z,99.09
2018-03-16T07:14:23.279Z,99.11
2018-03-16T07:16:51.415Z,99.09
2018-03-16T07:19:19.561Z,99.08
2018-03-16T07:21:47.703Z,99.09
2018-03-16T07:24:15.842Z,99.06
2018-03-16T07:26:43.974Z,99.06
2018-03-16T07:29:12.115Z,99.05
2018-03-16T07:31:40.250Z,98.91
2018-03-16T07:34:08.404Z,98.86
2018-03-16T07:36:36.552Z,98.88
2018-03-16T07:39:04.711Z,98.85
2018-03-16T07:41:32.855Z,98.82
2018-03-16T07:44:00.999Z,98.85
2018-03-16T07:46:29.139Z,98.90
2018-03-16T07:48:57.288Z,98.98
2018-03-16T07:51:25.406Z,99.05
2018-03-16T07:53:53.532Z,98.76
2018-03-16T07:56:21.675Z,98.78
2018-03-16T07:58:49.820Z,98.70
2018-03-16T08:01:17.955Z,98.60
2018-03-16T08:03:46.092Z,98.59
2018-03-16T08:06:14.232Z,98.54
2018-03-16T08:08:42.374Z,98.37
2018-03-16T08:11:10.807Z,98.09
2018-03-16T08:13:39.017Z,97.95
2018-03-16T08:16:07.155Z,97.75
2018-03-16T08:18:35.296Z,97.39
2018-03-16T08:21:03.515Z,97.06
2018-03-16T08:23:31.644Z,96.78
2018-03-16T08:25:59.774Z,96.74
2018-03-16T08:28:27.895Z,96.27
2018-03-16T08:30:56.027Z,96.27
2018-03-16T08:33:25.223Z,96.50
2018-03-16T08:35:53.343Z,96.64
2018-03-16T08:38:21.472Z,96.89
2018-03-16T08:40:49.608Z,96.85
2018-03-16T08:43:17.737Z,96.22
2018-03-16T08:45:46.012Z,96.33
2018-03-16T08:48:14.155Z,96.43
2018-03-16T08:50:42.319Z,96.07
2018-03-16T08:53:10.423Z,96.13
2018-03-16T08:55:38.567Z,96.38
2018-03-16T08:58:06.699Z,96.59
2018-03-16T09:00:34.889Z,96.97
2018-03-16T09:03:03.012Z,97.17
2018-03-16T09:05:31.144Z,97.03
2018-03-16T09:07:59.281Z,96.91
2018-03-16T09:10:27.419Z,96.28
2018-03-16T09:12:55.570Z,96.39
2018-03-16T09:15:23.705Z,96.15
2018-03-16T09:17:51.838Z,96.11
2018-03-16T09:20:19.968Z,96.25
2018-03-16T09:22:48.098Z,96.31
2018-03-16T09:25:16.235Z,96.00
2018-03-16T09:27:44.355Z,95.82
2018-03-16T09:30:12.491Z,95.67
2018-03-16T09:32:40.624Z,95.37
2018-03-16T09:35:08.752Z,95.39
2018-03-16T09:37:36.888Z,95.23
2018-03-16T09:40:05.011Z,94.46
2018-03-16T09:42:33.146Z,94.80
2018-03-16T09:45:01.269Z,94.87
2018-03-16T09:47:29.407Z,94.38
2018-03-16T09:49:57.531Z,94.65
2018-03-16T09:52:25.668Z,95.11
2018-03-16T09:55:05.464Z,95.57
2018-03-16T09:57:33.593Z,95.42
2018-03-16T10:00:01.720Z,95.57
2018-03-16T10:02:29.850Z,95.35
2018-03-16T10:04:57.980Z,94.05
2018-03-16T10:07:26.102Z,94.11
2018-03-16T10:09:54.265Z,93.70
2018-03-16T10:12:22.381Z,93.39
2018-03-16T10:14:50.521Z,93.06
2018-03-16T10:17:18.647Z,91.33
2018-03-16T10:19:46.768Z,91.68
2018-03-16T10:22:14.899Z,91.85
2018-03-16T10:24:43.038Z,91.57
2018-03-16T10:27:11.207Z,90.22
2018-03-16T10:29:42.265Z,91.28
2018-03-16T10:32:10.412Z,90.12
2018-03-16T10:34:38.569Z,90.17
2018-03-16T10:37:06.818Z,89.71
2018-03-16T10:39:35.176Z,89.97
2018-03-16T10:42:03.326Z,89.90
2018-03-16T10:44:31.456Z,89.63
2018-03-16T10:46:59.596Z,89.29
2018-03-16T10:49:27.726Z,89.09
2018-03-16T10:51:55.867Z,88.06
2018-03-16T10:54:24.008Z,88.46
2018-03-16T10:56:52.130Z,88.31
2018-03-16T10:59:20.266Z,87.94
2018-03-16T11:01:54.056Z,88.33
2018-03-16T11:04:27.659Z,88.05
2018-03-16T11:07:01.511Z,88.12
2018-03-16T11:09:40.250Z,86.40
2018-03-16T11:12:08.384Z,85.35
2018-03-16T11:14:36.518Z,85.49
2018-03-16T11:17:04.642Z,86.52
2018-03-16T11:19:32.788Z,85.90
2018-03-16T11:22:00.915Z,87.33
2018-03-16T11:24:29.041Z,86.21
2018-03-16T11:26:57.177Z,86.67
2018-03-16T11:29:25.312Z,86.05
2018-03-16T11:31:53.437Z,86.47
2018-03-16T11:34:21.557Z,86.71
2018-03-16T11:36:49.708Z,86.05
2018-03-16T11:39:17.840Z,85.88
2018-03-16T11:41:45.968Z,85.59
2018-03-16T11:44:14.110Z,85.58
2018-03-16T11:46:42.244Z,85.94
2018-03-16T11:49:10.471Z,85.55
2018-03-16T11:51:38.558Z,86.18
2018-03-16T11:54:06.701Z,86.40
2018-03-16T11:56:34.851Z,84.83
2018-03-16T11:59:03.005Z,85.28
2018-03-16T12:01:31.160Z,86.58
2018-03-16T12:03:59.355Z,85.69
2018-03-16T12:06:27.517Z,85.28
2018-03-16T12:08:55.684Z,83.77
2018-03-16T12:11:23.800Z,84.48
2018-03-16T12:13:51.945Z,85.18
2018-03-16T12:16:20.075Z,86.30
2018-03-16T12:18:48.226Z,86.40
2018-03-16T12:21:16.376Z,86.76
2018-03-16T12:23:47.529Z,86.80
2018-03-16T12:26:15.664Z,86.09
2018-03-16T12:28:49.815Z,84.65
2018-03-16T12:31:12.044Z,85.91
2018-03-16T12:33:40.198Z,85.35
2018-03-16T12:36:08.341Z,84.63
2018-03-16T12:38:36.564Z,83.61
2018-03-16T12:41:04.705Z,83.36
2018-03-16T12:43:32.879Z,84.35
2018-03-16T12:46:01.043Z,84.63
2018-03-16T12:48:29.676Z,84.77
2018-03-16T12:50:57.810Z,83.81
2018-03-16T12:53:26.009Z,84.72
2018-03-16T12:55:54.110Z,85.34
2018-03-16T12:58:22.256Z,85.61
2018-03-16T13:00:50.396Z,85.53
2018-03-16T13:03:18.565Z,84.15
2018-03-16T13:05:46.703Z,84.90
2018-03-16T13:08:14.901Z,84.25
2018-03-16T13:10:43.099Z,82.34
2018-03-16T13:13:11.291Z,83.41
2018-03-16T13:15:39.480Z,82.26
2018-03-16T13:18:07.639Z,81.21
2018-03-16T13:20:35.797Z,81.05
2018-03-16T13:23:04.015Z,79.93
2018-03-16T13:25:32.187Z,80.92
2018-03-16T13:28:00.419Z,80.09
2018-03-16T13:30:28.548Z,79.58
2018-03-16T13:32:56.745Z,79.88
2018-03-16T13:35:24.864Z,79.49
2018-03-16T13:37:53.015Z,78.95
2018-03-16T13:40:21.196Z,79.39
2018-03-16T13:42:49.344Z,79.36
2018-03-16T13:45:17.577Z,78.94
2018-03-16T13:47:45.710Z,78.51
2018-03-16T13:50:13.867Z,78.60
2018-03-16T13:52:42.061Z,78.87
2018-03-16T13:55:10.194Z,78.81
2018-03-16T13:57:38.342Z,79.34
2018-03-16T14:00:17.385Z,79.63
2018-03-16T14:02:45.542Z,80.31
2018-03-16T14:05:13.720Z,80.52
2018-03-16T14:07:41.862Z,80.63
2018-03-16T14:10:10.138Z,79.21
2018-03-16T14:12:38.293Z,79.54
2018-03-16T14:15:06.501Z,77.73
2018-03-16T14:17:34.701Z,78.46
2018-03-16T14:20:02.833Z,77.43
2018-03-16T14:22:30.965Z,77.16
2018-03-16T14:24:59.101Z,76.29
2018-03-16T14:27:27.304Z,76.67
2018-03-16T14:29:55.451Z,77.07
2018-03-16T14:32:23.584Z,76.87
2018-03-16T14:34:51.728Z,76.12
2018-03-16T14:37:19.878Z,76.45
2018-03-16T14:39:48.010Z,75.24
2018-03-16T14:42:16.173Z,74.39
2018-03-16T14:44:44.311Z,73.28
2018-03-16T14:47:12.439Z,73.06
2018-03-16T14:49:40.601Z,72.94
2018-03-16T14:52:08.769Z,72.34
2018-03-16T14:54:36.890Z,73.14
2018-03-16T14:57:05.045Z,72.23
2018-03-16T14:59:33.217Z,71.98
2018-03-16T15:02:01.360Z,70.81
2018-03-16T15:04:31.695Z,71.38
2018-03-16T15:06:59.825Z,70.14
2018-03-16T15:09:27.957Z,71.06
2018-03-16T15:11:56.129Z,72.07
2018-03-16T15:14:24.273Z,71.37
2018-03-16T15:16:52.412Z,71.06
2018-03-16T15:19:20.572Z,72.21
2018-03-16T15:21:48.742Z,72.66
2018-03-16T15:24:16.924Z,71.04
2018-03-16T15:26:45.064Z,71.79
2018-03-16T15:29:13.202Z,72.09
2018-03-16T15:31:41.380Z,71.67
2018-03-16T15:34:09.503Z,72.80
2018-03-16T15:36:37.639Z,72.72
2018-03-16T15:39:05.851Z,73.49
2018-03-16T15:41:34.053Z,73.44
2018-03-16T15:44:02.216Z,74.01
2018-03-16T15:46:30.340Z,74.49
2018-03-16T15:48:58.508Z,74.32
2018-03-16T15:51:26.620Z,74.87
2018-03-16T15:53:54.820Z,74.97
2018-03-16T15:56:22.937Z,75.27
2018-03-16T15:58:51.091Z,75.59
2018-03-16T16:01:19.231Z,75.77
2018-03-16T16:03:47.373Z,75.39
2018-03-16T16:06:15.515Z,75.39
2018-03-16T16:08:43.688Z,75.75
2018-03-16T16:11:11.838Z,76.17
2018-03-16T16:13:39.964Z,76.86
2018-03-16T16:16:08.104Z,76.90
2018-03-16T16:18:36.267Z,77.24
2018-03-16T16:21:04.401Z,77.67
2018-03-16T16:23:34.361Z,78.25
2018-03-16T16:26:02.509Z,78.98
2018-03-16T16:28:30.635Z,78.93
2018-03-16T16:30:58.809Z,79.38
2018-03-16T16:33:26.983Z,79.81
2018-03-16T16:35:55.175Z,79.90
2018-03-16T16:38:23.366Z,80.21
2018-03-16T16:40:51.500Z,81.27
2018-03-16T16:43:19.649Z,82.72
2018-03-16T16:45:47.761Z,80.53
2018-03-16T16:48:15.877Z,82.20
2018-03-16T16:50:44.021Z,82.20
2018-03-16T16:53:12.149Z,83.65
2018-03-16T16:55:40.280Z,83.76
2018-03-16T16:58:08.400Z,84.88
2018-03-16T17:00:36.544Z,85.58
2018-03-16T17:03:04.682Z,86.40
2018-03-16T17:05:32.847Z,86.83
2018-03-16T17:08:00.961Z,87.94
2018-03-16T17:10:29.085Z,88.66
2018-03-16T17:12:57.213Z,89.16
2018-03-16T17:15:25.321Z,88.10
2018-03-16T17:17:53.450Z,86.03
2018-03-16T17:20:21.574Z,85.13
2018-03-16T17:22:49.736Z,85.22
2018-03-16T17:25:17.860Z,85.29
2018-03-16T17:27:46.104Z,86.02
2018-03-16T17:30:14.217Z,86.73
2018-03-16T17:32:42.402Z,86.78
2018-03-16T17:35:10.927Z,86.29
2018-03-16T17:37:39.043Z,85.11
2018-03-16T17:40:07.344Z,85.47
2018-03-16T17:42:35.526Z,86.22
2018-03-16T17:45:03.628Z,86.54
2018-03-16T17:47:31.760Z,86.83
2018-03-16T17:49:59.894Z,87.67
2018-03-16T17:52:28.026Z,87.41
2018-03-16T17:54:56.140Z,87.77
2018-03-16T17:57:24.276Z,88.17
2018-03-16T17:59:52.405Z,88.75
2018-03-16T18:02:20.535Z,89.03
2018-03-16T18:04:48.653Z,89.15
2018-03-16T18:07:16.795Z,88.81
2018-03-16T18:09:44.908Z,88.57
2018-03-16T18:12:13.040Z,88.23
2018-03-16T18:14:41.222Z,88.46
2018-03-16T18:17:09.310Z,88.50
2018-03-16T18:19:37.426Z,88.53
2018-03-16T18:22:05.541Z,89.09
2018-03-16T18:24:33.655Z,89.68
2018-03-16T18:27:01.774Z,90.19
2018-03-16T18:29:30.599Z,90.61
2018-03-16T18:31:58.727Z,90.96
2018-03-16T18:34:26.860Z,91.36
2018-03-16T18:36:54.972Z,91.66
2018-03-16T18:39:23.096Z,91.68
2018-03-16T18:41:51.224Z,91.88
2018-03-16T18:44:19.339Z,91.85
2018-03-16T18:46:47.455Z,92.13
2018-03-16T18:49:15.579Z,92.31
2018-03-16T18:51:43.689Z,92.28
2018-03-16T18:54:11.813Z,92.20
2018-03-16T18:56:39.928Z,91.74
2018-03-16T18:59:08.057Z,91.50
2018-03-16T19:01:36.178Z,90.80
2018-03-16T19:04:04.406Z,90.79
2018-03-16T19:06:32.538Z,90.81
2018-03-16T19:09:00.680Z,91.10
2018-03-16T19:11:28.801Z,91.35
2018-03-16T19:13:56.917Z,91.51
2018-03-16T19:16:25.029Z,91.62
2018-03-16T19:18:53.177Z,91.72
2018-03-16T19:21:21.303Z,91.99
2018-03-16T19:23:49.452Z,92.22
2018-03-16T19:26:17.564Z,92.46
2018-03-16T19:28:45.702Z,92.64
2018-03-16T19:31:13.826Z,92.81
2018-03-16T19:33:41.945Z,93.00
2018-03-16T19:36:10.077Z,93.15
2018-03-16T19:38:38.237Z,93.29
2018-03-16T19:41:06.401Z,93.46
2018-03-16T19:43:34.541Z,93.67
2018-03-16T19:46:02.665Z,93.82
2018-03-16T19:48:30.806Z,94.02
2018-03-16T19:50:58.946Z,94.28
2018-03-16T19:53:27.100Z,94.53
2018-03-16T19:55:55.269Z,94.73
2018-03-16T19:58:23.411Z,94.94
2018-03-16T20:00:51.693Z,95.20
2018-03-16T20:03:20.267Z,95.31
2018-03-16T20:05:48.413Z,95.37
2018-03-16T20:08:16.564Z,95.49
2018-03-16T20:10:44.704Z,95.54
2018-03-16T20:13:12.822Z,95.63
2018-03-16T20:15:40.970Z,95.75
2018-03-16T20:18:09.605Z,95.87
2018-03-16T20:20:37.756Z,95.93
2018-03-16T20:23:05.944Z,96.00
2018-03-16T20:25:34.073Z,96.13
2018-03-16T20:28:02.231Z,96.33
2018-03-16T20:30:30.354Z,96.46
2018-03-16T20:32:58.499Z,96.51
2018-03-16T20:35:26.648Z,96.60
2018-03-16T20:37:54.805Z,96.70
2018-03-16T20:40:22.946Z,96.87
2018-03-16T20:42:51.092Z,97.02
2018-03-16T20:45:19.232Z,97.11
2018-03-16T20:47:47.365Z,97.19
2018-03-16T20:50:15.519Z,97.21
2018-03-16T20:52:43.663Z,97.22
2018-03-16T20:55:11.783Z,97.20
2018-03-16T20:57:39.903Z,97.16
2018-03-16T21:00:08.050Z,97.18
2018-03-16T21:02:36.181Z,97.23
2018-03-16T21:05:04.317Z,97.23
2018-03-16T21:07:33.166Z,97.22
2018-03-16T21:10:01.885Z,97.22
2018-03-16T21:12:30.039Z,97.24
2018-03-16T21:14:58.171Z,97.25
2018-03-16T21:17:26.316Z,97.23
2018-03-16T21:19:54.450Z,97.11
2018-03-16T21:22:22.599Z,97.10
2018-03-16T21:24:50.735Z,97.15
2018-03-16T21:27:18.868Z,97.14
2018-03-16T21:29:46.998Z,97.06
2018-03-16T21:32:15.202Z,97.06
2018-03-16T21:34:43.326Z,96.94
2018-03-16T21:37:11.476Z,96.91
2018-03-16T21:39:39.674Z,96.89
2018-03-16T21:42:07.795Z,96.85
2018-03-16T21:44:35.950Z,96.94
2018-03-16T21:47:04.095Z,96.96
2018-03-16T21:49:32.325Z,96.89
2018-03-16T21:52:00.489Z,96.92
2018-03-16T21:54:28.664Z,96.99
2018-03-16T21:56:56.792Z,97.13
2018-03-16T21:59:24.920Z,97.27
2018-03-16T22:01:53.073Z,97.38
2018-03-16T22:04:21.188Z,97.45
2018-03-16T22:06:49.375Z,97.56
2018-03-16T22:09:17.523Z,97.72
2018-03-16T22:11:45.655Z,97.79
2018-03-16T22:14:13.789Z,97.80
2018-03-16T22:16:41.945Z,97.81
2018-03-16T22:19:10.704Z,97.89
2018-03-16T22:21:38.844Z,97.91
2018-03-16T22:24:06.978Z,97.90
2018-03-16T22:26:35.096Z,97.91
2018-03-16T22:29:03.224Z,97.88
2018-03-16T22:31:31.351Z,97.90
2018-03-16T22:33:59.481Z,97.97
2018-03-16T22:36:27.593Z,98.01
2018-03-16T22:38:55.729Z,97.96
2018-03-16T22:41:23.860Z,97.89
2018-03-16T22:43:51.992Z,97.75
2018-03-16T22:46:20.123Z,97.62
2018-03-16T22:48:48.244Z,97.56
2018-03-16T22:51:16.374Z,97.44
2018-03-16T22:53:44.540Z,97.31
2018-03-16T22:56:12.668Z,97.32
2018-03-16T22:58:40.805Z,97.34
2018-03-16T23:01:08.945Z,97.36
2018-03-16T23:03:37.101Z,97.33
2018-03-16T23:06:05.231Z,97.27
2018-03-16T23:08:33.367Z,97.04
2018-03-16T23:11:01.510Z,96.89
2018-03-16T23:13:29.640Z,96.75
2018-03-16T23:15:57.807Z,96.73
2018-03-16T23:18:25.924Z,96.79
2018-03-16T23:20:54.078Z,96.79
2018-03-16T23:23:22.209Z,96.84
2018-03-16T23:25:50.335Z,97.04
2018-03-16T23:28:18.463Z,97.06
2018-03-16T23:30:46.599Z,97.14
2018-03-16T23:33:14.724Z,97.12
2018-03-16T23:35:42.855Z,97.04
2018-03-16T23:38:11.004Z,97.03
2018-03-16T23:40:39.137Z,97.08
2018-03-16T23:43:07.350Z,97.15
2018-03-16T23:45:35.476Z,97.29
2018-03-16T23:48:03.612Z,97.51
2018-03-16T23:50:31.744Z,97.71
2018-03-16T23:52:59.878Z,97.82
2018-03-16T23:55:28.091Z,98.19
2018-03-16T23:57:56.369Z,98.43
